TimeEST,TemperatureF,Dew PointF,Humidity,Sea Level PressureIn,VisibilityMPH,Wind Direction,Wind SpeedMPH,Gust SpeedMPH,PrecipitationIn,Events,Conditions,WindDirDegrees,DateUTC
12:53 AM,16.0,8.1,71,30.18,10.0,Calm,Calm,-,N/A,,Clear,0,2013-12-31 05:53:00
1:53 AM,16.0,8.1,71,30.18,10.0,Calm,Calm,-,N/A,,Clear,0,2013-12-31 06:53:00
2:53 AM,16.0,7.0,68,30.19,10.0,Calm,Calm,-,N/A,,Clear,0,2013-12-31 07:53:00
3:53 AM,16.0,7.0,68,30.17,10.0,NE,3.5,-,N/A,,Clear,40,2013-12-31 08:53:00
4:53 AM,15.1,7.0,70,30.14,10.0,Calm,Calm,-,N/A,,Clear,0,2013-12-31 09:53:00
5:53 AM,16.0,9.0,74,30.15,10.0,Calm,Calm,-,N/A,,Overcast,0,2013-12-31 10:53:00
6:53 AM,16.0,9.0,74,30.14,10.0,Calm,Calm,-,N/A,,Mostly Cloudy,0,2013-12-31 11:53:00
7:53 AM,16.0,9.0,74,30.15,10.0,Calm,Calm,-,N/A,,Partly Cloudy,0,2013-12-31 12:53:00
8:53 AM,19.0,9.0,65,30.14,10.0,Calm,Calm,-,N/A,,Clear,0,2013-12-31 13:53:00
9:53 AM,19.9,10.0,65,30.12,10.0,SSW,4.6,-,N/A,,Mostly Cloudy,200,2013-12-31 14:53:00
10:53 AM,23.0,10.0,58,30.11,10.0,SW,3.5,-,N/A,,Mostly Cloudy,230,2013-12-31 15:53:00
11:53 AM,24.1,10.9,57,30.07,10.0,WSW,5.8,-,N/A,,Overcast,240,2013-12-31 16:53:00
12:53 PM,27.0,12.9,56,30.04,10.0,Variable,5.8,-,N/A,,Overcast,0,2013-12-31 17:53:00
1:53 PM,28.0,12.9,53,30.03,10.0,Variable,3.5,-,N/A,,Overcast,0,2013-12-31 18:53:00
2:53 PM,30.0,16.0,56,30.04,10.0,SW,9.2,-,N/A,,Overcast,230,2013-12-31 19:53:00
3:53 PM,30.0,19.0,64,30.06,10.0,SW,6.9,-,N/A,,Overcast,230,2013-12-31 20:53:00
4:42 PM,28.4,21.2,74,30.08,2.5,West,8.1,-,0.00,Snow,Light Snow,260,2013-12-31 21:42:00
4:53 PM,28.9,21.9,75,30.08,3.0,WSW,5.8,-,0.00,Snow,Light Snow,250,2013-12-31 21:53:00
5:53 PM,28.0,21.0,75,30.09,10.0,Calm,Calm,-,0.00,,Mostly Cloudy,0,2013-12-31 22:53:00
6:00 PM,28.4,21.2,74,30.10,8.0,Calm,Calm,-,N/A,,Mostly Cloudy,0,2013-12-31 23:00:00
6:53 PM,28.9,12.0,49,30.13,10.0,West,11.5,21.9,0.00,,Clear,270,2013-12-31 23:53:00
7:53 PM,28.0,10.0,47,30.17,10.0,West,8.1,-,N/A,,Partly Cloudy,270,2014-01-01 00:53:00
8:53 PM,27.0,7.0,43,30.19,10.0,West,13.8,-,N/A,,Mostly Cloudy,260,2014-01-01 01:53:00
9:53 PM,26.1,8.1,47,30.22,10.0,West,10.4,18.4,N/A,,Clear,270,2014-01-01 02:53:00
10:53 PM,24.1,7.0,48,30.23,10.0,West,9.2,-,N/A,,Partly Cloudy,260,2014-01-01 03:53:00
11:53 PM,23.0,6.1,48,30.24,10.0,WNW,3.5,-,N/A,,Partly Cloudy,300,2014-01-01 04:53:00